Terminal Aerodrome Forecast
Issued by NWS Wilmington, OH

Current Version | Previous Version | Text Only | Print | Product List | Glossary Off
Versions: 1 2 3 4 5 6 7 8 9 10 11 12 13 14 15 16 17 18 19 20 21 22

000
FTUS41 KILN 202329
TAFILN
TAF
KILN 202329Z 2100/2124 23013KT P6SM -SHRA VCTS SCT050CB BKN100
      TEMPO 2100/2103 VRB15G25KT 2SM TSRA OVC025CB
     FM210300 23011KT 5SM -SHRA VCTS OVC050CB
     FM210600 26011KT P6SM VCSH BKN017
     FM210800 31010KT P6SM BKN035
     FM211300 31010KT P6SM SCT050
     FM212300 35008KT P6SM OVC060=

USA.gov is the U.S. government's official web portal to all federal, state and local government web resources and services.